»·PEaware :: N5002T KSEE-KSNA

N5002T :: KSEE-KSNA

FLIGHT INFORMATION

Flight Status: Arrived
Operator: Privately registered:
United States
More flights under this callsign
Pilot: Hunter M. (19355)
Aircraft: CESSNA 172 SKYHAWK
(C172)
More flights by this aircraft type
Origin: KSEE Gillespie
United States
Destination: KSNA John Wayne-Orange Co
United States
More flights between these airports :: More routes between these airports
Route: OCN V23 SLI
File this flight plan on PilotEdge
Remarks:
Altitude:
(Current/Filed)
6,000ft
Speed:
(Current/Filed)
118kts
Departed: 23-Nov-18 05:44 PM
Arrived: 23-Nov-18 06:51 PM
Distance/Time
Traveled:
68nm/1:06
Distance/Time
To Go:
Arrived

Flight Plot

Page will automatically refresh every two minutes.


Map Options




Map Legend


Flown Route
Filed Route
Departure Airport
Arrival Airport
Navaid (VOR, NDB)
Fix

Horizontal Profiles

Position Reports

Time Latitude Longitude Heading Altitude Ground
Speed
23-Nov-18 17:31 32.821807 -116.971091 178 390ft 0kts
23-Nov-18 17:32 32.821807 -116.971091 178 390ft 0kts
23-Nov-18 17:33 32.821807 -116.971091 178 390ft 0kts
23-Nov-18 17:34 32.821807 -116.971091 178 390ft 0kts
23-Nov-18 17:35 32.821807 -116.971091 178 390ft 0kts
23-Nov-18 17:36 32.821807 -116.971091 178 390ft 0kts
23-Nov-18 17:37 32.821807 -116.971091 178 390ft 0kts
23-Nov-18 17:38 32.821807 -116.971091 178 390ft 0kts
23-Nov-18 17:39 32.821807 -116.971091 178 390ft 0kts
23-Nov-18 17:40 32.821807 -116.971091 178 390ft 0kts
23-Nov-18 17:41 32.823756 -116.971362 354 390ft 12kts
23-Nov-18 17:42 32.825563 -116.971600 348 390ft 0kts
23-Nov-18 17:43 32.825472 -116.969809 100 390ft 9kts
23-Nov-18 17:44 32.825285 -116.967895 21 390ft 0kts
23-Nov-18 17:45 32.825285 -116.967894 21 390ft 0kts
23-Nov-18 17:46 32.825286 -116.967894 21 390ft 0kts
23-Nov-18 17:47 32.826859 -116.973486 281 390ft 76kts
23-Nov-18 17:48 32.838678 -116.995579 351 1055ft 96kts
23-Nov-18 17:49 32.867398 -117.000817 351 1471ft 106kts
23-Nov-18 17:50 32.896271 -117.005351 351 2044ft 103kts
23-Nov-18 17:51 32.924666 -117.008717 351 2641ft 100kts
23-Nov-18 17:52 32.952612 -117.011081 351 3206ft 103kts
23-Nov-18 17:53 32.981115 -117.013650 351 3805ft 101kts
23-Nov-18 17:54 32.998961 -117.027214 269 4414ft 82kts
23-Nov-18 17:55 33.007532 -117.051583 302 5022ft 82kts
23-Nov-18 17:56 33.021133 -117.073004 304 5610ft 79kts
23-Nov-18 17:57 33.034860 -117.094469 307 6021ft 88kts
23-Nov-18 17:58 33.050345 -117.118587 306 5992ft 91kts
23-Nov-18 17:59 33.065780 -117.142777 306 5991ft 91kts
23-Nov-18 18:00 33.081134 -117.166850 306 5991ft 91kts
23-Nov-18 18:01 33.096481 -117.190924 306 5991ft 91kts
23-Nov-18 18:02 33.111865 -117.215070 306 5992ft 91kts
23-Nov-18 18:03 33.127210 -117.239169 306 5992ft 91kts
23-Nov-18 18:04 33.142585 -117.263332 306 5991ft 91kts
23-Nov-18 18:05 33.157939 -117.287477 306 5991ft 91kts
23-Nov-18 18:06 33.173283 -117.311622 306 5991ft 91kts
23-Nov-18 18:07 33.188662 -117.335840 306 5990ft 91kts
23-Nov-18 18:08 33.203998 -117.360006 306 5990ft 91kts
23-Nov-18 18:09 33.219306 -117.384190 306 5991ft 91kts
23-Nov-18 18:10 33.234620 -117.408369 306 5996ft 91kts
23-Nov-18 18:11 33.251776 -117.430872 314 6001ft 92kts
23-Nov-18 18:12 33.270193 -117.452265 314 6000ft 92kts
23-Nov-18 18:13 33.288610 -117.473679 314 5999ft 92kts
23-Nov-18 18:14 33.307047 -117.495108 314 5999ft 92kts
23-Nov-18 18:15 33.325435 -117.516574 314 5998ft 92kts
23-Nov-18 18:16 33.343833 -117.538041 314 6000ft 92kts
23-Nov-18 18:17 33.362222 -117.559500 314 6000ft 92kts
23-Nov-18 18:18 33.380297 -117.580604 314 5999ft 92kts
23-Nov-18 18:19 33.398648 -117.602033 314 5999ft 92kts
23-Nov-18 18:20 33.417079 -117.623607 314 6001ft 92kts
23-Nov-18 18:21 33.435486 -117.645147 314 6000ft 92kts
23-Nov-18 18:22 33.453830 -117.666624 314 6000ft 92kts
23-Nov-18 18:23 33.472254 -117.688208 314 6001ft 92kts
23-Nov-18 18:24 33.490778 -117.709945 314 5999ft 92kts
23-Nov-18 18:25 33.509122 -117.731502 314 6000ft 92kts
23-Nov-18 18:26 33.527550 -117.753158 314 5999ft 92kts
23-Nov-18 18:27 33.546873 -117.773521 325 6004ft 92kts
23-Nov-18 18:28 33.556350 -117.798074 332 6023ft 91kts
23-Nov-18 18:29 33.580001 -117.811298 331 5998ft 94kts
23-Nov-18 18:30 33.603656 -117.824653 331 6000ft 93kts
23-Nov-18 18:31 33.627364 -117.837996 331 6001ft 94kts
23-Nov-18 18:32 33.651278 -117.851440 332 5998ft 94kts
23-Nov-18 18:33 33.675021 -117.864718 332 5998ft 94kts
23-Nov-18 18:34 33.698880 -117.877997 332 5997ft 94kts
23-Nov-18 18:35 33.722696 -117.891205 332 6002ft 94kts
23-Nov-18 18:36 33.749433 -117.881045 17 5500ft 107kts
23-Nov-18 18:37 33.777468 -117.867253 17 4819ft 109kts
23-Nov-18 18:38 33.805841 -117.853442 17 4140ft 109kts
23-Nov-18 18:39 33.831128 -117.840868 17 3980ft 87kts
23-Nov-18 18:40 33.852775 -117.829624 17 4009ft 85kts
23-Nov-18 18:41 33.875189 -117.818040 17 4003ft 88kts
23-Nov-18 18:42 33.885838 -117.795753 92 4020ft 95kts
23-Nov-18 18:43 33.883376 -117.763491 92 4002ft 97kts
23-Nov-18 18:44 33.861191 -117.757438 181 4010ft 93kts
23-Nov-18 18:45 33.836430 -117.766751 214 3591ft 96kts
23-Nov-18 18:46 33.811764 -117.782452 212 2986ft 102kts
23-Nov-18 18:47 33.787881 -117.797377 209 2432ft 84kts
23-Nov-18 18:48 33.768642 -117.809854 208 1778ft 79kts
23-Nov-18 18:49 33.750085 -117.822015 207 1699ft 77kts
23-Nov-18 18:50 33.731827 -117.833169 206 1138ft 71kts
23-Nov-18 18:51 33.714253 -117.844470 206 1088ft 72kts
23-Nov-18 18:52 33.698778 -117.854182 206 422ft 56kts
23-Nov-18 18:53 33.684572 -117.863218 205 184ft 54kts
23-Nov-18 18:54 33.678212 -117.867602 306 59ft 11kts
23-Nov-18 18:55 33.677233 -117.870483 252 59ft 2kts
23-Nov-18 18:56 33.676997 -117.870832 173 59ft 0kts
23-Nov-18 18:57 33.677086 -117.870728 298 59ft 3kts
23-Nov-18 18:58 33.677134 -117.870832 297 59ft 0kts

Navigation Log

Ident Type
Flight plan parsing failed, navigation log unavailable